createdAt,value
2017-10-18T00:01:59.379Z,15.00
2017-10-18T00:04:33.826Z,15.10
2017-10-18T00:07:08.428Z,15.10
2017-10-18T00:09:42.563Z,15.10
2017-10-18T00:12:16.916Z,15.00
2017-10-18T00:14:51.526Z,15.00
2017-10-18T00:17:25.852Z,15.10
2017-10-18T00:20:00.378Z,15.10
2017-10-18T00:22:34.683Z,15.10
2017-10-18T00:25:09.187Z,15.10
2017-10-18T00:27:43.554Z,15.00
2017-10-18T00:30:17.914Z,15.00
2017-10-18T00:32:52.622Z,15.00
2017-10-18T00:35:27.169Z,15.00
2017-10-18T00:38:01.703Z,15.00
2017-10-18T00:40:36.925Z,15.00
2017-10-18T00:43:11.615Z,14.90
2017-10-18T00:45:46.123Z,15.00
2017-10-18T00:48:20.633Z,15.00
2017-10-18T00:50:55.105Z,15.00
2017-10-18T00:53:29.823Z,15.00
2017-10-18T00:56:04.439Z,15.00
2017-10-18T00:58:38.800Z,15.00
2017-10-18T01:01:13.370Z,15.00
2017-10-18T01:03:47.988Z,14.90
2017-10-18T01:06:22.558Z,14.90
2017-10-18T01:08:57.092Z,14.90
2017-10-18T01:11:31.698Z,14.90
2017-10-18T01:14:06.370Z,14.90
2017-10-18T01:16:41.051Z,14.90
2017-10-18T01:19:15.654Z,14.80
2017-10-18T01:21:50.166Z,14.80
2017-10-18T01:24:24.835Z,14.80
2017-10-18T01:26:59.411Z,14.70
2017-10-18T01:29:33.943Z,14.70
2017-10-18T01:32:08.482Z,14.60
2017-10-18T01:34:42.994Z,14.60
2017-10-18T01:37:17.555Z,14.50
2017-10-18T01:39:51.957Z,14.50
2017-10-18T01:42:26.542Z,14.40
2017-10-18T01:45:01.207Z,14.40
2017-10-18T01:47:35.816Z,14.30
2017-10-18T01:50:10.290Z,14.20
2017-10-18T01:52:44.947Z,14.10
2017-10-18T01:55:19.515Z,14.10
2017-10-18T01:57:54.032Z,14.10
2017-10-18T02:00:28.554Z,14.00
2017-10-18T02:03:03.203Z,14.00
2017-10-18T02:05:37.778Z,14.00
2017-10-18T02:08:12.221Z,13.90
2017-10-18T02:10:46.892Z,13.90
2017-10-18T02:13:21.475Z,13.90
2017-10-18T02:15:56.024Z,13.90
2017-10-18T02:18:30.622Z,13.90
2017-10-18T02:37:00.297Z,13.80
2017-10-18T02:39:34.934Z,13.70
2017-10-18T02:42:09.592Z,13.70
2017-10-18T02:44:44.105Z,13.80
2017-10-18T02:47:19.452Z,13.80
2017-10-18T02:49:53.948Z,13.70
2017-10-18T02:52:28.485Z,13.80
2017-10-18T02:55:08.486Z,13.90
2017-10-18T02:57:42.904Z,13.90
2017-10-18T03:00:18.208Z,13.90
2017-10-18T03:02:52.923Z,13.90
2017-10-18T03:05:27.526Z,13.90
2017-10-18T03:08:02.073Z,13.90
2017-10-18T03:10:36.578Z,13.90
2017-10-18T03:13:11.093Z,13.90
2017-10-18T03:15:45.725Z,13.90
2017-10-18T03:18:20.262Z,13.80
2017-10-18T03:20:54.911Z,13.80
2017-10-18T03:23:29.356Z,13.80
2017-10-18T03:26:02.977Z,13.80
2017-10-18T03:28:37.313Z,13.80
2017-10-18T03:31:11.852Z,13.80
2017-10-18T03:33:46.448Z,13.70
2017-10-18T03:36:21.046Z,13.70
2017-10-18T03:38:56.345Z,13.70
2017-10-18T03:41:30.821Z,13.60
2017-10-18T03:44:05.334Z,13.70
2017-10-18T03:46:39.918Z,13.70
2017-10-18T03:49:14.386Z,13.70
2017-10-18T03:51:48.927Z,13.70
2017-10-18T03:54:23.534Z,13.70
2017-10-18T03:56:58.173Z,13.70
2017-10-18T03:59:32.786Z,13.80
2017-10-18T04:02:07.414Z,13.80
2017-10-18T04:04:42.030Z,13.80
2017-10-18T04:07:16.553Z,13.80
2017-10-18T04:09:51.155Z,13.80
2017-10-18T04:12:25.710Z,13.70
2017-10-18T04:15:00.178Z,13.70
2017-10-18T04:17:34.733Z,13.80
2017-10-18T04:20:09.286Z,13.80
2017-10-18T04:22:43.789Z,13.80
2017-10-18T04:25:18.438Z,13.80
2017-10-18T04:27:53.033Z,13.80
2017-10-18T04:30:27.574Z,13.80
2017-10-18T04:33:02.147Z,13.80
2017-10-18T04:35:36.431Z,13.80
2017-10-18T04:38:11.618Z,13.70
2017-10-18T04:40:46.177Z,13.60
2017-10-18T04:43:20.658Z,13.70
2017-10-18T04:45:55.240Z,13.70
2017-10-18T04:48:29.938Z,13.60
2017-10-18T04:51:04.442Z,13.60
2017-10-18T04:53:39.496Z,13.60
2017-10-18T04:56:14.099Z,13.50
2017-10-18T04:58:48.562Z,13.50
2017-10-18T05:01:23.858Z,13.50
2017-10-18T05:03:58.426Z,13.40
2017-10-18T05:06:33.046Z,13.50
2017-10-18T05:09:07.536Z,13.50
2017-10-18T05:11:42.107Z,13.50
2017-10-18T05:14:16.809Z,13.50
2017-10-18T05:16:51.169Z,13.50
2017-10-18T05:19:25.493Z,13.50
2017-10-18T05:21:59.114Z,13.50
2017-10-18T05:24:33.630Z,13.40
2017-10-18T05:27:08.171Z,13.40
2017-10-18T05:29:42.817Z,13.40
2017-10-18T05:32:17.326Z,13.40
2017-10-18T05:34:51.935Z,13.40
2017-10-18T05:37:26.451Z,13.40
2017-10-18T05:40:00.893Z,13.40
2017-10-18T05:42:35.465Z,13.40
2017-10-18T05:45:13.794Z,13.40
2017-10-18T05:47:48.397Z,13.30
2017-10-18T05:50:22.909Z,13.40
2017-10-18T05:52:57.333Z,13.40
2017-10-18T05:55:33.622Z,13.50
2017-10-18T05:58:08.259Z,13.60
2017-10-18T06:00:42.732Z,13.60
2017-10-18T06:03:17.389Z,13.70
2017-10-18T06:05:57.913Z,13.70
2017-10-18T06:08:32.513Z,13.80
2017-10-18T06:11:07.147Z,13.90
2017-10-18T06:13:41.816Z,14.00
2017-10-18T06:16:16.354Z,14.10
2017-10-18T06:18:50.589Z,14.20
2017-10-18T06:21:25.138Z,14.30
2017-10-18T06:23:59.417Z,14.40
2017-10-18T06:26:33.917Z,14.60
2017-10-18T06:29:08.435Z,14.70
2017-10-18T06:31:42.985Z,14.70
2017-10-18T06:34:17.409Z,14.80
2017-10-18T06:36:52.045Z,14.90
2017-10-18T06:39:26.657Z,15.00
2017-10-18T06:42:01.977Z,15.10
2017-10-18T06:44:36.526Z,15.00
2017-10-18T06:47:11.105Z,15.20
2017-10-18T06:49:45.744Z,15.20
2017-10-18T06:52:20.386Z,15.30
2017-10-18T06:54:54.833Z,15.30
2017-10-18T06:57:29.326Z,15.30
2017-10-18T07:00:07.516Z,15.40
2017-10-18T07:02:42.117Z,15.30
2017-10-18T07:05:16.654Z,15.30
2017-10-18T07:07:51.331Z,15.30
2017-10-18T07:10:25.973Z,15.30
2017-10-18T07:13:00.659Z,15.30
2017-10-18T07:15:36.026Z,15.40
2017-10-18T07:18:10.654Z,15.40
2017-10-18T07:20:45.337Z,15.50
2017-10-18T07:23:19.926Z,15.50
2017-10-18T07:25:54.485Z,15.60
2017-10-18T07:28:28.983Z,15.70
2017-10-18T07:31:03.538Z,15.70
2017-10-18T07:33:38.154Z,15.70
2017-10-18T07:36:12.599Z,15.70
2017-10-18T07:38:47.029Z,15.70
2017-10-18T07:41:21.406Z,15.80
2017-10-18T07:43:56.114Z,15.80
2017-10-18T07:46:30.618Z,15.80
2017-10-18T07:49:05.161Z,15.90
2017-10-18T07:51:39.838Z,15.90
2017-10-18T07:54:15.078Z,16.00
2017-10-18T07:56:49.547Z,15.90
2017-10-18T07:59:24.021Z,16.00
2017-10-18T08:01:58.559Z,16.10
2017-10-18T08:04:33.234Z,16.20
2017-10-18T08:07:07.713Z,16.10
2017-10-18T08:09:42.182Z,16.20
2017-10-18T08:12:16.704Z,16.30
2017-10-18T08:14:51.386Z,16.40
2017-10-18T08:17:26.022Z,16.60
2017-10-18T08:20:00.221Z,16.80
2017-10-18T08:22:34.541Z,17.10
2017-10-18T08:25:10.215Z,17.30
2017-10-18T08:27:44.722Z,17.60
2017-10-18T08:30:19.330Z,17.80
2017-10-18T08:32:54.054Z,17.90
2017-10-18T08:35:28.693Z,18.20
2017-10-18T08:38:03.490Z,18.40
2017-10-18T08:40:37.738Z,18.50
2017-10-18T08:43:12.374Z,18.50
2017-10-18T08:45:47.698Z,18.50
2017-10-18T08:48:22.138Z,18.40
2017-10-18T08:50:56.680Z,18.50
2017-10-18T08:53:31.447Z,18.40
2017-10-18T08:56:05.902Z,18.70
2017-10-18T08:58:40.544Z,19.10
2017-10-18T09:01:14.362Z,19.60
2017-10-18T09:03:48.930Z,20.50
2017-10-18T09:06:23.463Z,21.20
2017-10-18T09:08:58.125Z,21.50
2017-10-18T09:11:32.502Z,21.90
2017-10-18T09:14:06.793Z,22.50
2017-10-18T09:16:41.371Z,22.90
2017-10-18T09:19:15.880Z,24.70
2017-10-18T09:21:50.502Z,26.40
2017-10-18T09:24:25.039Z,27.90
2017-10-18T09:26:59.652Z,30.70
2017-10-18T09:29:34.243Z,32.50
2017-10-18T09:32:08.805Z,33.90
2017-10-18T09:34:43.370Z,34.70
2017-10-18T09:37:17.994Z,36.10
2017-10-18T09:39:52.619Z,37.30
2017-10-18T09:42:26.997Z,37.90
2017-10-18T09:45:01.454Z,39.60
2017-10-18T09:47:36.025Z,41.20
2017-10-18T09:50:10.605Z,42.90
2017-10-18T09:52:45.319Z,44.40
2017-10-18T09:55:19.873Z,45.60
2017-10-18T09:57:54.530Z,46.40
2017-10-18T10:00:28.708Z,46.70
2017-10-18T10:03:03.214Z,47.10
2017-10-18T10:05:37.769Z,46.80
2017-10-18T10:08:12.390Z,45.70
2017-10-18T10:10:46.710Z,46.10
2017-10-18T10:13:21.192Z,46.40
2017-10-18T10:15:55.530Z,46.30
2017-10-18T10:18:30.054Z,45.80
2017-10-18T10:21:04.646Z,45.30
2017-10-18T10:23:39.089Z,44.90
2017-10-18T10:26:13.652Z,44.00
2017-10-18T10:28:48.196Z,43.40
2017-10-18T10:31:22.642Z,43.40
2017-10-18T10:33:57.102Z,42.30
2017-10-18T10:36:31.601Z,42.10
2017-10-18T10:39:05.934Z,42.40
2017-10-18T10:41:40.578Z,43.10
2017-10-18T10:44:15.232Z,43.80
2017-10-18T10:46:49.861Z,44.80
2017-10-18T10:49:24.437Z,45.30
2017-10-18T10:51:59.065Z,46.00
2017-10-18T10:54:33.695Z,47.10
2017-10-18T10:57:09.013Z,47.60
2017-10-18T10:59:43.919Z,47.50
2017-10-18T11:02:18.378Z,47.50
2017-10-18T11:04:52.827Z,47.00
2017-10-18T11:07:27.386Z,47.60
2017-10-18T11:10:02.122Z,48.20
2017-10-18T11:12:37.630Z,49.40
2017-10-18T11:15:12.138Z,49.90
2017-10-18T11:17:47.349Z,50.20
2017-10-18T11:20:21.838Z,50.20
2017-10-18T11:22:56.158Z,50.60
2017-10-18T11:25:30.478Z,50.70
2017-10-18T11:28:05.090Z,51.20
2017-10-18T11:30:39.716Z,51.70
2017-10-18T11:33:14.306Z,52.20
2017-10-18T11:35:48.823Z,52.60
2017-10-18T11:38:24.142Z,53.20
2017-10-18T11:40:58.614Z,53.10
2017-10-18T11:43:33.070Z,52.90
2017-10-18T11:46:07.684Z,52.80
2017-10-18T11:48:42.326Z,51.90
2017-10-18T11:51:16.929Z,51.50
2017-10-18T11:53:51.609Z,51.40
2017-10-18T11:56:26.070Z,51.70
2017-10-18T11:59:00.597Z,52.10
2017-10-18T12:01:35.147Z,52.20
2017-10-18T12:04:09.593Z,52.10
2017-10-18T12:06:44.212Z,52.40
2017-10-18T12:09:18.765Z,52.10
2017-10-18T12:11:53.325Z,51.20
2017-10-18T12:14:27.923Z,50.60
2017-10-18T12:17:02.406Z,50.80
2017-10-18T12:19:36.833Z,50.80
2017-10-18T12:22:11.458Z,50.70
2017-10-18T12:24:46.030Z,50.10
2017-10-18T12:27:20.518Z,50.00
2017-10-18T12:29:55.061Z,49.90
2017-10-18T12:32:29.657Z,49.70
2017-10-18T12:35:05.918Z,49.50
2017-10-18T12:37:40.562Z,49.40
2017-10-18T12:40:15.135Z,49.20
2017-10-18T12:42:49.789Z,47.80
2017-10-18T12:45:24.399Z,45.80
2017-10-18T12:47:59.281Z,43.70
2017-10-18T12:50:33.766Z,41.80
2017-10-18T12:53:08.418Z,39.80
2017-10-18T12:55:42.981Z,37.90
2017-10-18T12:58:17.407Z,36.30
2017-10-18T13:00:51.894Z,35.20
2017-10-18T13:03:26.397Z,34.20
2017-10-18T13:06:00.953Z,33.30
2017-10-18T13:08:35.374Z,32.30
2017-10-18T13:11:10.004Z,31.40
2017-10-18T13:13:44.747Z,30.90
2017-10-18T13:16:19.303Z,30.50
2017-10-18T13:18:53.963Z,30.30
2017-10-18T13:21:28.678Z,30.20
2017-10-18T13:24:03.218Z,30.00
2017-10-18T13:26:38.758Z,29.50
2017-10-18T13:29:13.261Z,29.30
2017-10-18T13:31:47.836Z,28.80
2017-10-18T13:34:23.238Z,27.90
2017-10-18T13:36:57.910Z,27.80
2017-10-18T13:39:32.716Z,27.70
2017-10-18T13:42:07.151Z,27.50
2017-10-18T13:44:41.797Z,27.20
2017-10-18T13:47:16.354Z,26.90
2017-10-18T13:49:50.786Z,26.80
2017-10-18T13:52:25.406Z,26.70
2017-10-18T13:54:59.881Z,26.60
2017-10-18T13:57:34.509Z,26.60
2017-10-18T14:00:11.828Z,26.60
2017-10-18T14:02:46.245Z,26.70
2017-10-18T14:05:20.823Z,26.70
2017-10-18T14:07:55.194Z,26.70
2017-10-18T14:10:29.753Z,26.60
2017-10-18T14:13:04.197Z,26.50
2017-10-18T14:15:38.697Z,26.50
2017-10-18T14:18:13.262Z,26.40
2017-10-18T14:20:47.834Z,26.10
2017-10-18T14:23:22.311Z,25.90
2017-10-18T14:25:56.830Z,25.70
2017-10-18T14:28:32.222Z,25.40
2017-10-18T14:31:06.774Z,25.30
2017-10-18T14:33:41.998Z,25.10
2017-10-18T14:36:17.366Z,25.00
2017-10-18T14:38:51.857Z,24.90
2017-10-18T14:41:26.498Z,24.80
2017-10-18T14:44:01.123Z,24.70
2017-10-18T14:46:35.725Z,24.60
2017-10-18T14:49:10.376Z,24.40
2017-10-18T14:51:44.865Z,24.20
2017-10-18T14:54:19.566Z,24.00
2017-10-18T14:56:54.142Z,23.80
2017-10-18T14:59:28.587Z,23.60
2017-10-18T15:02:02.985Z,23.40
2017-10-18T15:04:37.425Z,23.10
2017-10-18T15:07:12.050Z,22.90
2017-10-18T15:09:46.650Z,22.80
2017-10-18T15:12:21.314Z,22.60
2017-10-18T15:14:55.790Z,22.50
2017-10-18T15:17:30.350Z,22.40
2017-10-18T15:20:08.930Z,22.30
2017-10-18T15:22:43.472Z,22.30
2017-10-18T15:25:18.857Z,22.10
2017-10-18T15:27:53.342Z,22.00
2017-10-18T15:30:27.794Z,22.00
2017-10-18T15:33:02.414Z,21.80
2017-10-18T15:35:37.041Z,21.80
2017-10-18T15:38:11.710Z,21.70
2017-10-18T15:40:46.226Z,21.60
2017-10-18T15:43:21.698Z,21.40
2017-10-18T15:45:56.169Z,21.30
2017-10-18T15:48:30.683Z,21.30
2017-10-18T15:51:05.235Z,21.20
2017-10-18T15:53:40.011Z,21.10
2017-10-18T15:56:14.758Z,21.00
2017-10-18T15:58:50.097Z,20.80
2017-10-18T16:01:24.678Z,20.70
2017-10-18T16:03:59.233Z,20.80
2017-10-18T16:06:33.860Z,20.70
2017-10-18T16:09:08.381Z,20.60
2017-10-18T16:11:42.941Z,20.60
2017-10-18T16:14:17.485Z,20.50
2017-10-18T16:16:52.026Z,20.50
2017-10-18T16:19:27.478Z,20.30
2017-10-18T16:22:01.926Z,20.20
2017-10-18T16:24:36.569Z,20.30
2017-10-18T16:27:11.237Z,20.20
2017-10-18T16:29:45.861Z,20.10
2017-10-18T16:32:20.362Z,20.00
2017-10-18T16:34:54.857Z,19.90
2017-10-18T16:37:29.462Z,19.80
2017-10-18T16:40:04.030Z,19.70
2017-10-18T16:42:39.754Z,19.60
2017-10-18T16:45:14.232Z,19.50
2017-10-18T16:47:48.843Z,19.50
2017-10-18T16:50:23.162Z,19.40
2017-10-18T16:52:57.713Z,19.40
2017-10-18T16:55:32.410Z,19.30
2017-10-18T16:58:06.940Z,19.30
2017-10-18T17:00:41.477Z,19.20
2017-10-18T17:03:16.060Z,19.10
2017-10-18T17:05:50.636Z,19.10
2017-10-18T17:08:25.147Z,19.00
2017-10-18T17:10:59.754Z,19.00
2017-10-18T17:13:34.277Z,18.90
2017-10-18T17:16:08.865Z,18.90
2017-10-18T17:18:43.501Z,18.80
2017-10-18T17:21:17.990Z,18.70
2017-10-18T17:23:52.429Z,18.60
2017-10-18T17:26:27.026Z,18.50
2017-10-18T17:29:01.491Z,18.50
2017-10-18T17:31:36.158Z,18.40
2017-10-18T17:34:10.867Z,18.30
2017-10-18T17:36:45.378Z,18.20
2017-10-18T17:39:19.891Z,18.20
2017-10-18T17:41:54.621Z,18.10
2017-10-18T17:44:28.926Z,18.00
2017-10-18T17:47:03.289Z,17.90
2017-10-18T17:49:37.947Z,17.90
2017-10-18T17:52:12.434Z,17.80
2017-10-18T17:54:47.022Z,17.80
2017-10-18T17:57:21.614Z,17.70
2017-10-18T17:59:56.128Z,17.60
2017-10-18T18:02:30.454Z,17.60
2017-10-18T18:05:12.627Z,17.60
2017-10-18T18:07:47.085Z,17.50
2017-10-18T18:10:21.669Z,17.40
2017-10-18T18:12:56.105Z,17.30
2017-10-18T18:15:30.659Z,17.30
2017-10-18T18:18:04.930Z,17.30
2017-10-18T18:20:39.482Z,17.20
2017-10-18T18:23:13.925Z,17.20
2017-10-18T18:25:49.285Z,17.10
2017-10-18T18:28:24.047Z,17.00
2017-10-18T18:30:58.511Z,17.10
2017-10-18T18:33:32.994Z,17.00
2017-10-18T18:36:07.571Z,16.90
2017-10-18T18:38:42.017Z,16.90
2017-10-18T18:41:16.359Z,16.90
2017-10-18T18:43:50.910Z,16.80
2017-10-18T18:46:25.453Z,16.70
2017-10-18T18:49:00.082Z,16.70
2017-10-18T18:51:34.678Z,16.70
2017-10-18T18:54:09.996Z,16.60
2017-10-18T18:56:44.583Z,16.50
2017-10-18T18:59:19.194Z,16.50
2017-10-18T19:01:53.804Z,16.50
2017-10-18T19:04:28.389Z,16.40
2017-10-18T19:07:02.930Z,16.40
2017-10-18T19:09:38.143Z,16.30
2017-10-18T19:12:12.610Z,16.20
2017-10-18T19:14:47.185Z,16.30
2017-10-18T19:17:21.791Z,16.30
2017-10-18T19:19:56.200Z,16.30
2017-10-18T19:22:31.407Z,16.10
2017-10-18T19:25:12.842Z,16.00
2017-10-18T19:27:47.487Z,16.10
2017-10-18T19:30:22.010Z,16.10
2017-10-18T19:32:57.345Z,15.90
2017-10-18T19:35:31.965Z,15.90
2017-10-18T19:38:06.498Z,15.90
2017-10-18T19:40:40.998Z,15.90
2017-10-18T19:43:15.654Z,15.80
2017-10-18T19:45:50.315Z,15.70
2017-10-18T19:48:24.886Z,15.70
2017-10-18T19:50:59.510Z,15.70
2017-10-18T19:53:34.153Z,15.70
2017-10-18T19:56:08.804Z,15.70
2017-10-18T19:58:43.378Z,15.60
2017-10-18T20:01:18.113Z,15.60
2017-10-18T20:03:52.791Z,15.50
2017-10-18T20:06:27.346Z,15.50
2017-10-18T20:09:01.926Z,15.50
2017-10-18T20:11:36.530Z,15.40
2017-10-18T20:14:11.180Z,15.40
2017-10-18T20:16:45.738Z,15.40
2017-10-18T20:19:20.211Z,15.40
2017-10-18T20:21:54.833Z,15.30
2017-10-18T20:24:29.354Z,15.30
2017-10-18T20:27:03.937Z,15.30
2017-10-18T20:29:38.494Z,15.20
2017-10-18T20:32:14.058Z,15.20
2017-10-18T20:34:48.586Z,15.20
2017-10-18T20:37:23.194Z,15.20
2017-10-18T20:39:57.777Z,15.20
2017-10-18T20:42:32.273Z,15.20
2017-10-18T20:45:15.889Z,15.20
2017-10-18T20:47:50.140Z,15.10
2017-10-18T20:50:24.473Z,15.10
2017-10-18T20:52:59.174Z,15.00
2017-10-18T20:55:33.785Z,15.00
2017-10-18T20:58:08.543Z,15.00
2017-10-18T21:00:43.128Z,15.00
2017-10-18T21:03:17.574Z,14.90
2017-10-18T21:05:52.114Z,14.90
2017-10-18T21:08:26.521Z,14.80
2017-10-18T21:11:00.988Z,14.80
2017-10-18T21:13:35.631Z,14.80
2017-10-18T21:16:09.998Z,14.80
2017-10-18T21:18:44.617Z,14.70
2017-10-18T21:21:19.170Z,14.70
2017-10-18T21:23:53.781Z,14.70
2017-10-18T21:26:28.370Z,14.60
2017-10-18T21:29:02.866Z,14.60
2017-10-18T21:31:37.202Z,14.60
2017-10-18T21:34:11.903Z,14.60
2017-10-18T21:36:46.522Z,14.50
2017-10-18T21:39:20.737Z,14.50
2017-10-18T21:41:55.260Z,14.50
2017-10-18T21:44:29.936Z,14.40
2017-10-18T21:47:04.582Z,14.40
2017-10-18T21:49:40.015Z,14.30
2017-10-18T21:52:15.452Z,14.20
2017-10-18T21:54:49.958Z,14.20
2017-10-18T21:57:24.587Z,14.20
2017-10-18T21:59:59.129Z,14.20
2017-10-18T22:02:33.737Z,14.20
2017-10-18T22:05:08.287Z,14.10
2017-10-18T22:07:42.907Z,14.10
2017-10-18T22:10:17.438Z,14.10
2017-10-18T22:12:52.130Z,14.00
2017-10-18T22:15:26.674Z,14.00
2017-10-18T22:18:01.182Z,14.00
2017-10-18T22:20:35.510Z,13.90
2017-10-18T22:23:10.930Z,13.80
2017-10-18T22:25:45.614Z,13.80
2017-10-18T22:28:20.350Z,13.80
2017-10-18T22:30:54.857Z,13.80
2017-10-18T22:33:29.458Z,13.80
2017-10-18T22:36:04.026Z,13.70
2017-10-18T22:38:38.614Z,13.80
2017-10-18T22:41:13.858Z,13.70
2017-10-18T22:43:48.497Z,13.60
2017-10-18T22:46:23.130Z,13.70
2017-10-18T22:48:57.761Z,13.70
2017-10-18T22:51:32.279Z,13.70
2017-10-18T22:54:07.770Z,13.70
2017-10-18T22:56:42.254Z,13.70
2017-10-18T22:59:16.889Z,13.80
2017-10-18T23:01:51.453Z,13.80
2017-10-18T23:04:26.118Z,13.80
2017-10-18T23:07:00.792Z,13.80
2017-10-18T23:09:35.423Z,13.80
2017-10-18T23:12:10.017Z,13.90
2017-10-18T23:14:44.582Z,13.90
2017-10-18T23:17:19.354Z,13.80
2017-10-18T23:19:53.825Z,13.80
2017-10-18T23:22:28.544Z,13.80
2017-10-18T23:25:03.238Z,13.80
2017-10-18T23:27:37.773Z,13.80
2017-10-18T23:30:12.402Z,13.70
2017-10-18T23:32:46.940Z,13.70
2017-10-18T23:35:21.517Z,13.70
2017-10-18T23:37:55.979Z,13.80
2017-10-18T23:40:30.537Z,13.70
2017-10-18T23:43:05.062Z,13.70
2017-10-18T23:45:39.631Z,13.80
2017-10-18T23:48:14.273Z,13.80
2017-10-18T23:50:48.766Z,13.80
2017-10-18T23:53:24.173Z,13.90
2017-10-18T23:55:58.665Z,13.80
2017-10-18T23:58:33.199Z,13.90
